sensor_id;sensor_type;location;lat;lon;timestamp;pressure;altitude;pressure_sealevel;temperature;humidity
61128;BME280;47013;42.664;23.242;2023-06-10T00:01:02;93675.72;;;18.11;100.00
61128;BME280;47013;42.664;23.242;2023-06-10T00:03:27;93675.41;;;18.09;100.00
61128;BME280;47013;42.664;23.242;2023-06-10T00:05:53;93676.97;;;18.10;100.00
61128;BME280;47013;42.664;23.242;2023-06-10T00:08:18;93674.97;;;18.11;100.00
61128;BME280;47013;42.664;23.242;2023-06-10T00:10:44;93676.97;;;18.10;100.00
61128;BME280;47013;42.664;23.242;2023-06-10T00:13:10;93679.69;;;18.10;100.00
61128;BME280;47013;42.664;23.242;2023-06-10T00:15:36;93677.38;;;18.09;100.00
61128;BME280;47013;42.664;23.242;2023-06-10T00:18:01;93681.53;;;17.95;100.00
61128;BME280;47013;42.664;23.242;2023-06-10T00:20:27;93681.56;;;17.86;100.00
61128;BME280;47013;42.664;23.242;2023-06-10T00:22:52;93680.59;;;17.61;100.00
61128;BME280;47013;42.664;23.242;2023-06-10T00:25:18;93682.28;;;17.68;100.00
61128;BME280;47013;42.664;23.242;2023-06-10T00:27:43;93680.75;;;17.49;100.00
61128;BME280;47013;42.664;23.242;2023-06-10T00:30:09;93678.44;;;17.38;100.00
61128;BME280;47013;42.664;23.242;2023-06-10T00:32:35;93676.91;;;17.28;100.00
61128;BME280;47013;42.664;23.242;2023-06-10T00:35:01;93679.66;;;17.28;100.00
61128;BME280;47013;42.664;23.242;2023-06-10T00:37:26;93675.41;;;17.36;100.00
61128;BME280;47013;42.664;23.242;2023-06-10T00:39:52;93674.78;;;17.41;100.00
61128;BME280;47013;42.664;23.242;2023-06-10T00:42:17;93670.38;;;17.44;100.00
61128;BME280;47013;42.664;23.242;2023-06-10T00:44:42;93672.53;;;17.49;100.00
61128;BME280;47013;42.664;23.242;2023-06-10T00:47:07;93673.88;;;17.53;100.00
61128;BME280;47013;42.664;23.242;2023-06-10T00:49:33;93676.81;;;17.59;100.00
61128;BME280;47013;42.664;23.242;2023-06-10T00:51:59;93672.69;;;17.63;100.00
61128;BME280;47013;42.664;23.242;2023-06-10T00:54:24;93672.69;;;17.63;100.00
61128;BME280;47013;42.664;23.242;2023-06-10T00:56:50;93676.47;;;17.66;100.00
61128;BME280;47013;42.664;23.242;2023-06-10T00:59:16;93680.00;;;17.66;100.00
61128;BME280;47013;42.664;23.242;2023-06-10T01:01:41;93683.50;;;17.67;100.00
61128;BME280;47013;42.664;23.242;2023-06-10T01:04:08;93677.56;;;17.68;100.00
61128;BME280;47013;42.664;23.242;2023-06-10T01:06:47;93677.88;;;17.71;100.00
61128;BME280;47013;42.664;23.242;2023-06-10T01:12:05;93682.75;;;17.76;100.00
61128;BME280;47013;42.664;23.242;2023-06-10T01:14:33;93688.25;;;17.76;100.00
61128;BME280;47013;42.664;23.242;2023-06-10T01:17:00;93685.50;;;17.76;100.00
61128;BME280;47013;42.664;23.242;2023-06-10T01:19:25;93690.50;;;17.59;100.00
61128;BME280;47013;42.664;23.242;2023-06-10T01:21:51;93691.84;;;17.36;100.00
61128;BME280;47013;42.664;23.242;2023-06-10T01:24:16;93692.59;;;17.36;100.00
61128;BME280;47013;42.664;23.242;2023-06-10T01:26:43;93690.47;;;17.40;100.00
61128;BME280;47013;42.664;23.242;2023-06-10T01:29:13;93687.28;;;17.33;100.00
61128;BME280;47013;42.664;23.242;2023-06-10T01:31:43;93689.25;;;17.42;100.00
61128;BME280;47013;42.664;23.242;2023-06-10T01:34:11;93678.94;;;17.46;100.00
61128;BME280;47013;42.664;23.242;2023-06-10T01:36:38;93683.50;;;17.49;100.00
61128;BME280;47013;42.664;23.242;2023-06-10T01:39:05;93677.84;;;17.52;100.00
61128;BME280;47013;42.664;23.242;2023-06-10T01:41:32;93679.69;;;17.46;100.00
61128;BME280;47013;42.664;23.242;2023-06-10T01:44:00;93679.38;;;17.53;100.00
61128;BME280;47013;42.664;23.242;2023-06-10T01:46:25;93683.19;;;17.56;100.00
61128;BME280;47013;42.664;23.242;2023-06-10T01:48:50;93684.69;;;17.57;100.00
61128;BME280;47013;42.664;23.242;2023-06-10T01:51:15;93686.56;;;17.60;100.00
61128;BME280;47013;42.664;23.242;2023-06-10T01:53:41;93677.69;;;17.37;100.00
61128;BME280;47013;42.664;23.242;2023-06-10T01:56:06;93668.22;;;17.20;100.00
61128;BME280;47013;42.664;23.242;2023-06-10T01:58:31;93672.34;;;17.25;100.00
61128;BME280;47013;42.664;23.242;2023-06-10T02:00:57;93668.88;;;17.33;100.00
61128;BME280;47013;42.664;23.242;2023-06-10T02:03:22;93659.38;;;17.16;100.00
61128;BME280;47013;42.664;23.242;2023-06-10T02:05:48;93662.25;;;17.03;100.00
61128;BME280;47013;42.664;23.242;2023-06-10T02:08:13;93656.25;;;16.77;100.00
61128;BME280;47013;42.664;23.242;2023-06-10T02:10:39;93654.25;;;16.69;100.00
61128;BME280;47013;42.664;23.242;2023-06-10T02:13:04;93651.22;;;16.76;100.00
61128;BME280;47013;42.664;23.242;2023-06-10T02:15:30;93650.03;;;16.86;100.00
61128;BME280;47013;42.664;23.242;2023-06-10T02:17:55;93654.03;;;16.94;100.00
61128;BME280;47013;42.664;23.242;2023-06-10T02:20:21;93647.34;;;17.04;100.00
61128;BME280;47013;42.664;23.242;2023-06-10T02:22:47;93646.44;;;17.17;100.00
61128;BME280;47013;42.664;23.242;2023-06-10T02:25:12;93641.44;;;17.24;100.00
61128;BME280;47013;42.664;23.242;2023-06-10T02:27:37;93650.56;;;17.30;100.00
61128;BME280;47013;42.664;23.242;2023-06-10T02:30:03;93645.25;;;17.36;100.00
61128;BME280;47013;42.664;23.242;2023-06-10T02:32:28;93641.44;;;17.43;100.00
61128;BME280;47013;42.664;23.242;2023-06-10T02:34:53;93639.34;;;17.47;100.00
61128;BME280;47013;42.664;23.242;2023-06-10T02:37:19;93640.41;;;17.49;100.00
61128;BME280;47013;42.664;23.242;2023-06-10T02:39:44;93644.50;;;17.54;100.00
61128;BME280;47013;42.664;23.242;2023-06-10T02:42:09;93639.66;;;17.58;100.00
61128;BME280;47013;42.664;23.242;2023-06-10T02:44:35;93635.97;;;17.61;100.00
61128;BME280;47013;42.664;23.242;2023-06-10T02:47:00;93623.34;;;17.63;100.00
61128;BME280;47013;42.664;23.242;2023-06-10T02:49:26;93626.53;;;17.53;100.00
61128;BME280;47013;42.664;23.242;2023-06-10T02:51:54;93625.78;;;17.52;100.00
61128;BME280;47013;42.664;23.242;2023-06-10T02:54:19;93629.25;;;17.44;100.00
61128;BME280;47013;42.664;23.242;2023-06-10T02:56:45;93624.38;;;17.29;100.00
61128;BME280;47013;42.664;23.242;2023-06-10T02:59:11;93623.16;;;17.30;100.00
61128;BME280;47013;42.664;23.242;2023-06-10T03:01:36;93623.50;;;17.32;100.00
61128;BME280;47013;42.664;23.242;2023-06-10T03:04:02;93628.66;;;17.39;100.00
61128;BME280;47013;42.664;23.242;2023-06-10T03:06:28;93634.44;;;17.42;100.00
61128;BME280;47013;42.664;23.242;2023-06-10T03:08:54;93638.25;;;17.44;100.00
61128;BME280;47013;42.664;23.242;2023-06-10T03:11:19;93637.94;;;17.42;100.00
61128;BME280;47013;42.664;23.242;2023-06-10T03:13:45;93642.50;;;17.27;100.00
61128;BME280;47013;42.664;23.242;2023-06-10T03:16:10;93640.19;;;17.16;100.00
61128;BME280;47013;42.664;23.242;2023-06-10T03:18:37;93639.44;;;17.06;100.00
61128;BME280;47013;42.664;23.242;2023-06-10T03:21:02;93635.50;;;17.07;100.00
61128;BME280;47013;42.664;23.242;2023-06-10T03:23:28;93649.03;;;17.11;100.00
61128;BME280;47013;42.664;23.242;2023-06-10T03:25:54;93662.75;;;17.20;100.00
61128;BME280;47013;42.664;23.242;2023-06-10T03:28:20;93665.03;;;17.22;100.00
61128;BME280;47013;42.664;23.242;2023-06-10T03:30:46;93661.84;;;17.23;100.00
61128;BME280;47013;42.664;23.242;2023-06-10T03:33:11;93674.94;;;17.28;100.00
61128;BME280;47013;42.664;23.242;2023-06-10T03:35:37;93668.88;;;17.33;100.00
61128;BME280;47013;42.664;23.242;2023-06-10T03:38:02;93668.72;;;17.37;100.00
61128;BME280;47013;42.664;23.242;2023-06-10T03:40:27;93666.13;;;17.43;100.00
61128;BME280;47013;42.664;23.242;2023-06-10T03:42:53;93663.22;;;17.28;100.00
61128;BME280;47013;42.664;23.242;2023-06-10T03:45:18;93660.91;;;17.17;100.00
61128;BME280;47013;42.664;23.242;2023-06-10T03:47:43;93659.69;;;17.18;100.00
61128;BME280;47013;42.664;23.242;2023-06-10T03:50:09;93662.00;;;17.20;100.00
61128;BME280;47013;42.664;23.242;2023-06-10T03:52:35;93660.13;;;17.17;100.00
61128;BME280;47013;42.664;23.242;2023-06-10T03:55:00;93650.72;;;17.27;100.00
61128;BME280;47013;42.664;23.242;2023-06-10T03:57:25;93655.91;;;17.34;100.00
61128;BME280;47013;42.664;23.242;2023-06-10T03:59:51;93649.38;;;17.40;100.00
61128;BME280;47013;42.664;23.242;2023-06-10T04:02:16;93655.03;;;17.46;100.00
61128;BME280;47013;42.664;23.242;2023-06-10T04:04:41;93653.94;;;17.53;100.00
61128;BME280;47013;42.664;23.242;2023-06-10T04:07:07;93652.56;;;17.57;100.00
61128;BME280;47013;42.664;23.242;2023-06-10T04:09:33;93656.84;;;17.58;100.00
61128;BME280;47013;42.664;23.242;2023-06-10T04:11:59;93658.84;;;17.58;100.00
61128;BME280;47013;42.664;23.242;2023-06-10T04:14:24;93659.13;;;17.60;100.00
61128;BME280;47013;42.664;23.242;2023-06-10T04:16:49;93658.84;;;17.58;100.00
61128;BME280;47013;42.664;23.242;2023-06-10T04:19:15;93669.47;;;17.56;100.00
61128;BME280;47013;42.664;23.242;2023-06-10T04:21:41;93668.56;;;17.59;100.00
61128;BME280;47013;42.664;23.242;2023-06-10T04:24:06;93661.25;;;17.65;100.00
61128;BME280;47013;42.664;23.242;2023-06-10T04:26:32;93665.97;;;17.64;100.00
61128;BME280;47013;42.664;23.242;2023-06-10T04:28:58;93664.94;;;17.71;100.00
61128;BME280;47013;42.664;23.242;2023-06-10T04:31:23;93662.06;;;17.75;100.00
61128;BME280;47013;42.664;23.242;2023-06-10T04:33:49;93665.38;;;17.69;100.00
61128;BME280;47013;42.664;23.242;2023-06-10T04:36:14;93673.78;;;17.75;100.00
61128;BME280;47013;42.664;23.242;2023-06-10T04:38:39;93669.19;;;17.81;100.00
61128;BME280;47013;42.664;23.242;2023-06-10T04:41:05;93658.09;;;17.85;100.00
61128;BME280;47013;42.664;23.242;2023-06-10T04:43:31;93663.41;;;17.88;100.00
61128;BME280;47013;42.664;23.242;2023-06-10T04:45:56;93665.06;;;17.95;100.00
61128;BME280;47013;42.664;23.242;2023-06-10T04:48:21;93658.97;;;18.00;100.00
61128;BME280;47013;42.664;23.242;2023-06-10T04:50:48;93663.06;;;18.05;100.00
61128;BME280;47013;42.664;23.242;2023-06-10T04:53:14;93660.16;;;18.08;100.00
61128;BME280;47013;42.664;23.242;2023-06-10T04:55:40;93668.41;;;18.08;100.00
61128;BME280;47013;42.664;23.242;2023-06-10T04:58:05;93671.59;;;18.07;100.00
61128;BME280;47013;42.664;23.242;2023-06-10T05:00:30;93665.97;;;18.10;100.00
61128;BME280;47013;42.664;23.242;2023-06-10T05:02:56;93664.44;;;18.09;100.00
61128;BME280;47013;42.664;23.242;2023-06-10T05:05:21;93658.53;;;17.92;100.00
61128;BME280;47013;42.664;23.242;2023-06-10T05:07:46;93656.53;;;17.93;100.00
61128;BME280;47013;42.664;23.242;2023-06-10T05:10:12;93658.97;;;18.00;100.00
61128;BME280;47013;42.664;23.242;2023-06-10T05:12:38;93659.56;;;18.04;100.00
61128;BME280;47013;42.664;23.242;2023-06-10T05:15:05;93661.69;;;18.09;100.00
61128;BME280;47013;42.664;23.242;2023-06-10T05:17:31;93661.09;;;18.14;100.00
61128;BME280;47013;42.664;23.242;2023-06-10T05:19:57;93666.88;;;18.16;100.00
61128;BME280;47013;42.664;23.242;2023-06-10T05:22:22;93652.69;;;18.18;100.00
61128;BME280;47013;42.664;23.242;2023-06-10T05:24:49;93665.34;;;18.15;100.00
61128;BME280;47013;42.664;23.242;2023-06-10T05:27:16;93656.66;;;18.17;100.00
61128;BME280;47013;42.664;23.242;2023-06-10T05:29:41;93667.94;;;18.19;100.00
61128;BME280;47013;42.664;23.242;2023-06-10T05:32:07;93663.66;;;18.27;100.00
61128;BME280;47013;42.664;23.242;2023-06-10T05:34:32;93675.06;;;18.35;100.00
61128;BME280;47013;42.664;23.242;2023-06-10T05:36:57;93662.72;;;18.39;100.00
61128;BME280;47013;42.664;23.242;2023-06-10T05:39:23;93663.28;;;18.43;100.00
61128;BME280;47013;42.664;23.242;2023-06-10T05:41:48;93661.31;;;18.44;100.00
61128;BME280;47013;42.664;23.242;2023-06-10T05:44:13;93665.88;;;18.47;100.00
61128;BME280;47013;42.664;23.242;2023-06-10T05:46:38;93663.00;;;18.32;100.00
61128;BME280;47013;42.664;23.242;2023-06-10T05:49:04;93671.00;;;18.12;100.00
61128;BME280;47013;42.664;23.242;2023-06-10T05:51:29;93666.00;;;17.92;100.00
61128;BME280;47013;42.664;23.242;2023-06-10T05:53:54;93672.84;;;17.78;100.00
61128;BME280;47013;42.664;23.242;2023-06-10T05:56:20;93671.47;;;17.83;100.00
61128;BME280;47013;42.664;23.242;2023-06-10T05:58:47;93678.34;;;17.69;100.00
61128;BME280;47013;42.664;23.242;2023-06-10T06:01:12;93676.81;;;17.86;100.00
61128;BME280;47013;42.664;23.242;2023-06-10T06:03:38;93680.47;;;17.83;100.00
61128;BME280;47013;42.664;23.242;2023-06-10T06:06:03;93671.47;;;17.92;100.00
61128;BME280;47013;42.664;23.242;2023-06-10T06:08:29;93673.00;;;18.02;100.00
61128;BME280;47013;42.664;23.242;2023-06-10T06:10:54;93677.25;;;18.12;100.00
61128;BME280;47013;42.664;23.242;2023-06-10T06:13:19;93675.56;;;18.24;100.00
61128;BME280;47013;42.664;23.242;2023-06-10T06:15:45;93667.13;;;18.37;100.00
61128;BME280;47013;42.664;23.242;2023-06-10T06:18:10;93672.28;;;18.53;100.00
61128;BME280;47013;42.664;23.242;2023-06-10T06:20:35;93672.41;;;18.68;100.00
61128;BME280;47013;42.664;23.242;2023-06-10T06:23:00;93675.22;;;18.82;100.00
61128;BME280;47013;42.664;23.242;2023-06-10T06:25:26;93681.78;;;18.85;100.00
61128;BME280;47013;42.664;23.242;2023-06-10T06:27:51;93685.56;;;18.88;100.00
61128;BME280;47013;42.664;23.242;2023-06-10T06:30:17;93682.78;;;18.97;100.00
61128;BME280;47013;42.664;23.242;2023-06-10T06:32:42;93685.06;;;18.98;100.00
61128;BME280;47013;42.664;23.242;2023-06-10T06:35:07;93687.69;;;19.02;100.00
61128;BME280;47013;42.664;23.242;2023-06-10T06:37:33;93685.38;;;19.00;100.00
61128;BME280;47013;42.664;23.242;2023-06-10T06:39:58;93694.53;;;18.97;100.00
61128;BME280;47013;42.664;23.242;2023-06-10T06:42:24;93682.75;;;19.06;100.00
61128;BME280;47013;42.664;23.242;2023-06-10T06:44:50;93682.06;;;19.20;100.00
61128;BME280;47013;42.664;23.242;2023-06-10T06:47:15;93678.81;;;19.31;100.00
61128;BME280;47013;42.664;23.242;2023-06-10T06:49:44;93677.00;;;19.28;100.00
61128;BME280;47013;42.664;23.242;2023-06-10T06:52:09;93670.09;;;19.32;100.00
61128;BME280;47013;42.664;23.242;2023-06-10T06:54:35;93674.25;;;19.28;100.00
61128;BME280;47013;42.664;23.242;2023-06-10T06:57:00;93677.75;;;19.28;100.00
61128;BME280;47013;42.664;23.242;2023-06-10T06:59:25;93668.28;;;19.29;100.00
61128;BME280;47013;42.664;23.242;2023-06-10T07:01:51;93671.09;;;19.44;97.48
61128;BME280;47013;42.664;23.242;2023-06-10T07:04:19;93666.88;;;19.58;95.02
61128;BME280;47013;42.664;23.242;2023-06-10T07:06:46;93666.09;;;19.81;93.70
61128;BME280;47013;42.664;23.242;2023-06-10T07:09:11;93661.09;;;19.94;92.49
61128;BME280;47013;42.664;23.242;2023-06-10T07:11:37;93667.56;;;20.06;90.64
61128;BME280;47013;42.664;23.242;2023-06-10T07:14:02;93671.44;;;20.14;86.29
61128;BME280;47013;42.664;23.242;2023-06-10T07:16:27;93664.06;;;20.20;84.94
61128;BME280;47013;42.664;23.242;2023-06-10T07:18:52;93658.84;;;20.22;86.71
61128;BME280;47013;42.664;23.242;2023-06-10T07:21:18;93653.31;;;20.08;84.57
61128;BME280;47013;42.664;23.242;2023-06-10T07:23:43;93653.22;;;20.17;86.41
61128;BME280;47013;42.664;23.242;2023-06-10T07:26:09;93653.69;;;20.15;84.87
61128;BME280;47013;42.664;23.242;2023-06-10T07:28:36;93656.25;;;20.04;83.40
61128;BME280;47013;42.664;23.242;2023-06-10T07:31:01;93652.25;;;20.05;84.77
61128;BME280;47013;42.664;23.242;2023-06-10T07:33:27;93653.81;;;20.21;86.47
61128;BME280;47013;42.664;23.242;2023-06-10T07:35:52;93652.78;;;20.48;86.18
61128;BME280;47013;42.664;23.242;2023-06-10T07:38:17;93654.28;;;20.64;86.31
61128;BME280;47013;42.664;23.242;2023-06-10T07:40:42;93655.44;;;20.72;86.15
61128;BME280;47013;42.664;23.242;2023-06-10T07:43:07;93649.16;;;20.71;84.73
61128;BME280;47013;42.664;23.242;2023-06-10T07:45:33;93653.78;;;20.80;83.24
61128;BME280;47013;42.664;23.242;2023-06-10T07:47:58;93660.31;;;20.97;80.08
61128;BME280;47013;42.664;23.242;2023-06-10T07:50:23;93655.34;;;21.01;80.50
61128;BME280;47013;42.664;23.242;2023-06-10T07:52:49;93652.56;;;21.16;81.83
61128;BME280;47013;42.664;23.242;2023-06-10T07:55:14;93656.44;;;21.24;82.03
61128;BME280;47013;42.664;23.242;2023-06-10T07:57:39;93656.25;;;21.48;80.91
61128;BME280;47013;42.664;23.242;2023-06-10T08:00:05;93653.59;;;21.54;75.86
61128;BME280;47013;42.664;23.242;2023-06-10T08:02:31;93656.59;;;21.56;74.05
61128;BME280;47013;42.664;23.242;2023-06-10T08:04:56;93666.19;;;21.81;70.72
61128;BME280;47013;42.664;23.242;2023-06-10T08:07:21;93661.41;;;22.01;69.30
61128;BME280;47013;42.664;23.242;2023-06-10T08:09:47;93655.91;;;22.01;68.71
61128;BME280;47013;42.664;23.242;2023-06-10T08:12:12;93651.41;;;22.04;71.33
61128;BME280;47013;42.664;23.242;2023-06-10T08:14:37;93648.88;;;22.26;70.48
61128;BME280;47013;42.664;23.242;2023-06-10T08:17:03;93650.97;;;22.37;70.14
61128;BME280;47013;42.664;23.242;2023-06-10T08:19:30;93645.88;;;22.56;67.28
61128;BME280;47013;42.664;23.242;2023-06-10T08:21:56;93638.25;;;22.77;65.58
61128;BME280;47013;42.664;23.242;2023-06-10T08:24:21;93637.19;;;23.00;65.19
61128;BME280;47013;42.664;23.242;2023-06-10T08:26:46;93638.78;;;23.12;64.13
61128;BME280;47013;42.664;23.242;2023-06-10T08:29:11;93626.53;;;23.30;62.18
61128;BME280;47013;42.664;23.242;2023-06-10T08:31:37;93632.94;;;23.53;64.73
61128;BME280;47013;42.664;23.242;2023-06-10T08:34:02;93633.47;;;23.57;63.01
61128;BME280;47013;42.664;23.242;2023-06-10T08:36:27;93623.00;;;23.72;64.12
61128;BME280;47013;42.664;23.242;2023-06-10T08:38:53;93632.34;;;23.86;61.78
61128;BME280;47013;42.664;23.242;2023-06-10T08:41:18;93624.09;;;24.03;61.22
61128;BME280;47013;42.664;23.242;2023-06-10T08:43:48;93628.38;;;24.21;59.75
61128;BME280;47013;42.664;23.242;2023-06-10T08:46:17;93627.91;;;24.28;58.43
61128;BME280;47013;42.664;23.242;2023-06-10T08:48:43;93622.66;;;24.35;59.80
61128;BME280;47013;42.664;23.242;2023-06-10T08:51:10;93624.69;;;24.40;58.03
61128;BME280;47013;42.664;23.242;2023-06-10T08:53:36;93617.38;;;24.60;57.01
61128;BME280;47013;42.664;23.242;2023-06-10T08:56:02;93612.59;;;24.71;56.64
61128;BME280;47013;42.664;23.242;2023-06-10T08:58:29;93610.34;;;24.76;55.78
61128;BME280;47013;42.664;23.242;2023-06-10T09:00:54;93609.06;;;24.77;53.83
61128;BME280;47013;42.664;23.242;2023-06-10T09:03:20;93609.06;;;24.88;52.84
61128;BME280;47013;42.664;23.242;2023-06-10T09:05:46;93613.59;;;24.91;52.66
61128;BME280;47013;42.664;23.242;2023-06-10T09:08:12;93611.06;;;24.82;51.37
61128;BME280;47013;42.664;23.242;2023-06-10T09:10:37;93603.03;;;25.01;54.60
61128;BME280;47013;42.664;23.242;2023-06-10T09:13:03;93600.22;;;25.06;52.46
61128;BME280;47013;42.664;23.242;2023-06-10T09:15:28;93597.69;;;25.14;51.97
61128;BME280;47013;42.664;23.242;2023-06-10T09:17:53;93606.50;;;25.18;53.58
61128;BME280;47013;42.664;23.242;2023-06-10T09:20:19;93600.16;;;25.34;52.72
61128;BME280;47013;42.664;23.242;2023-06-10T09:22:44;93605.34;;;25.60;53.41
61128;BME280;47013;42.664;23.242;2023-06-10T09:25:10;93602.34;;;25.58;52.73
61128;BME280;47013;42.664;23.242;2023-06-10T09:27:51;93597.25;;;25.68;51.83
61128;BME280;47013;42.664;23.242;2023-06-10T09:30:34;93595.06;;;25.44;51.31
61128;BME280;47013;42.664;23.242;2023-06-10T09:33:00;93587.78;;;25.41;52.50
61128;BME280;47013;42.664;23.242;2023-06-10T09:35:26;93594.91;;;25.19;53.87
61128;BME280;47013;42.664;23.242;2023-06-10T09:37:52;93593.88;;;25.28;52.35
61128;BME280;47013;42.664;23.242;2023-06-10T09:40:18;93590.59;;;25.24;52.94
61128;BME280;47013;42.664;23.242;2023-06-10T09:42:43;93588.09;;;25.15;53.39
61128;BME280;47013;42.664;23.242;2023-06-10T09:45:08;93577.97;;;25.28;52.20
61128;BME280;47013;42.664;23.242;2023-06-10T09:47:34;93577.63;;;25.54;50.74
61128;BME280;47013;42.664;23.242;2023-06-10T09:49:59;93579.56;;;25.65;50.68
61128;BME280;47013;42.664;23.242;2023-06-10T09:52:27;93576.16;;;25.37;47.17
61128;BME280;47013;42.664;23.242;2023-06-10T09:54:53;93578.25;;;25.19;48.28
61128;BME280;47013;42.664;23.242;2023-06-10T09:57:19;93572.19;;;25.26;48.94
61128;BME280;47013;42.664;23.242;2023-06-10T09:59:45;93571.59;;;25.45;48.29
61128;BME280;47013;42.664;23.242;2023-06-10T10:02:14;93569.03;;;25.58;48.51
61128;BME280;47013;42.664;23.242;2023-06-10T10:04:39;93570.88;;;25.91;46.16
61128;BME280;47013;42.664;23.242;2023-06-10T10:07:05;93564.84;;;25.93;46.58
61128;BME280;47013;42.664;23.242;2023-06-10T10:09:32;93563.00;;;26.06;47.85
61128;BME280;47013;42.664;23.242;2023-06-10T10:11:57;93557.84;;;26.22;46.88
61128;BME280;47013;42.664;23.242;2023-06-10T10:14:23;93560.63;;;26.16;44.85
61128;BME280;47013;42.664;23.242;2023-06-10T10:16:50;93557.91;;;26.10;47.15
61128;BME280;47013;42.664;23.242;2023-06-10T10:19:26;93555.53;;;26.26;46.35
61128;BME280;47013;42.664;23.242;2023-06-10T10:21:53;93553.97;;;26.30;45.49
61128;BME280;47013;42.664;23.242;2023-06-10T10:24:23;93553.34;;;26.49;47.16
61128;BME280;47013;42.664;23.242;2023-06-10T10:26:49;93546.72;;;26.82;45.50
61128;BME280;47013;42.664;23.242;2023-06-10T10:29:26;93544.91;;;27.14;45.07
61128;BME280;47013;42.664;23.242;2023-06-10T10:31:54;93537.88;;;27.08;43.54
61128;BME280;47013;42.664;23.242;2023-06-10T10:34:23;93541.41;;;26.84;44.86
61128;BME280;47013;42.664;23.242;2023-06-10T10:36:54;93546.31;;;26.42;43.91
61128;BME280;47013;42.664;23.242;2023-06-10T10:39:22;93548.88;;;26.04;44.44
61128;BME280;47013;42.664;23.242;2023-06-10T10:41:53;93540.34;;;25.91;44.71
61128;BME280;47013;42.664;23.242;2023-06-10T10:44:23;93544.75;;;26.11;45.09
61128;BME280;47013;42.664;23.242;2023-06-10T10:46:51;93530.28;;;26.24;43.91
61128;BME280;47013;42.664;23.242;2023-06-10T10:49:19;93526.63;;;26.40;44.07
61128;BME280;47013;42.664;23.242;2023-06-10T10:52:02;93528.28;;;26.54;43.02
61128;BME280;47013;42.664;23.242;2023-06-10T10:54:36;93528.41;;;26.67;43.06
61128;BME280;47013;42.664;23.242;2023-06-10T10:59:57;93518.22;;;26.75;41.48
61128;BME280;47013;42.664;23.242;2023-06-10T11:05:14;93515.84;;;26.61;42.06
61128;BME280;47013;42.664;23.242;2023-06-10T11:07:40;93515.38;;;26.57;43.10
61128;BME280;47013;42.664;23.242;2023-06-10T11:10:16;93516.25;;;26.70;42.55
61128;BME280;47013;42.664;23.242;2023-06-10T11:15:10;93500.13;;;26.63;41.80
61128;BME280;47013;42.664;23.242;2023-06-10T11:17:35;93499.63;;;26.65;42.26
61128;BME280;47013;42.664;23.242;2023-06-10T11:20:00;93498.31;;;26.71;41.64
61128;BME280;47013;42.664;23.242;2023-06-10T11:22:28;93490.22;;;26.68;42.25
61128;BME280;47013;42.664;23.242;2023-06-10T11:24:56;93495.53;;;26.71;42.46
61128;BME280;47013;42.664;23.242;2023-06-10T11:27:27;93496.16;;;26.83;42.44
61128;BME280;47013;42.664;23.242;2023-06-10T11:32:40;93476.47;;;26.57;42.10
61128;BME280;47013;42.664;23.242;2023-06-10T11:35:11;93470.31;;;26.64;44.14
61128;BME280;47013;42.664;23.242;2023-06-10T11:37:36;93473.28;;;26.71;41.94
61128;BME280;47013;42.664;23.242;2023-06-10T11:40:25;93479.28;;;27.00;41.94
61128;BME280;47013;42.664;23.242;2023-06-10T11:43:03;93479.06;;;26.98;40.51
61128;BME280;47013;42.664;23.242;2023-06-10T11:45:37;93485.66;;;26.70;41.38
61128;BME280;47013;42.664;23.242;2023-06-10T11:48:27;93481.59;;;26.47;42.47
61128;BME280;47013;42.664;23.242;2023-06-10T11:51:08;93471.03;;;26.40;41.83
61128;BME280;47013;42.664;23.242;2023-06-10T11:53:36;93469.81;;;26.30;42.08
61128;BME280;47013;42.664;23.242;2023-06-10T11:56:12;93474.47;;;26.22;43.08
61128;BME280;47013;42.664;23.242;2023-06-10T11:58:55;93465.09;;;26.25;42.12
61128;BME280;47013;42.664;23.242;2023-06-10T12:01:30;93473.28;;;26.11;43.12
61128;BME280;47013;42.664;23.242;2023-06-10T12:04:07;93480.25;;;25.88;43.48
61128;BME280;47013;42.664;23.242;2023-06-10T12:06:44;93477.31;;;25.80;43.57
61128;BME280;47013;42.664;23.242;2023-06-10T12:09:30;93470.03;;;25.72;43.92
61128;BME280;47013;42.664;23.242;2023-06-10T12:14:59;93469.09;;;25.58;44.50
61128;BME280;47013;42.664;23.242;2023-06-10T12:19:59;93470.47;;;25.40;45.60
61128;BME280;47013;42.664;23.242;2023-06-10T12:22:25;93467.94;;;25.37;45.31
61128;BME280;47013;42.664;23.242;2023-06-10T12:25:03;93470.00;;;25.31;44.22
61128;BME280;47013;42.664;23.242;2023-06-10T12:27:29;93463.97;;;25.21;44.19
61128;BME280;47013;42.664;23.242;2023-06-10T12:30:03;93466.25;;;25.22;43.25
61128;BME280;47013;42.664;23.242;2023-06-10T12:32:54;93459.22;;;25.10;44.25
61128;BME280;47013;42.664;23.242;2023-06-10T12:35:41;93456.72;;;25.07;45.29
61128;BME280;47013;42.664;23.242;2023-06-10T12:38:17;93449.19;;;25.02;45.94
61128;BME280;47013;42.664;23.242;2023-06-10T12:40:47;93454.44;;;25.11;45.51
61128;BME280;47013;42.664;23.242;2023-06-10T12:43:12;93455.47;;;25.08;44.97
61128;BME280;47013;42.664;23.242;2023-06-10T12:45:38;93452.94;;;25.10;45.96
61128;BME280;47013;42.664;23.242;2023-06-10T12:48:22;93447.38;;;25.10;44.09
61128;BME280;47013;42.664;23.242;2023-06-10T12:50:51;93448.88;;;25.11;43.66
61128;BME280;47013;42.664;23.242;2023-06-10T12:53:17;93456.44;;;25.16;42.56
61128;BME280;47013;42.664;23.242;2023-06-10T12:55:43;93456.69;;;25.12;41.35
61128;BME280;47013;42.664;23.242;2023-06-10T12:58:10;93455.94;;;25.12;41.82
61128;BME280;47013;42.664;23.242;2023-06-10T13:00:35;93453.44;;;25.14;40.51
61128;BME280;47013;42.664;23.242;2023-06-10T13:03:01;93453.44;;;25.14;41.09